createdAt,value
2022-12-04T00:05:16.027Z,6.01
2022-12-04T00:15:25.710Z,6.24
2022-12-04T00:25:35.261Z,6.04
2022-12-04T00:35:42.470Z,6.06
2022-12-04T00:45:45.927Z,6.34
2022-12-04T00:55:50.427Z,6.51
2022-12-04T01:05:54.156Z,6.67
2022-12-04T01:15:58.663Z,6.68
2022-12-04T01:26:02.254Z,6.72
2022-12-04T01:36:09.204Z,6.65
2022-12-04T01:46:13.196Z,6.87
2022-12-04T01:56:18.301Z,7.00
2022-12-04T02:06:21.405Z,7.07
2022-12-04T02:16:29.895Z,7.11
2022-12-04T02:26:42.280Z,7.14
2022-12-04T02:36:51.547Z,7.16
2022-12-04T02:46:57.989Z,6.76
2022-12-04T02:57:03.731Z,6.76
2022-12-04T03:07:13.536Z,6.58
2022-12-04T03:17:22.003Z,6.52
2022-12-04T03:27:27.899Z,6.92
2022-12-04T03:37:36.952Z,6.87
2022-12-04T03:47:44.327Z,6.94
2022-12-04T03:57:50.598Z,6.56
2022-12-04T04:07:56.254Z,7.39
2022-12-04T04:18:20.379Z,6.97
2022-12-04T04:28:31.257Z,6.46
2022-12-04T04:38:39.166Z,5.47
2022-12-04T04:48:44.444Z,5.20
2022-12-04T04:58:48.964Z,6.19
2022-12-04T05:08:52.104Z,6.05
2022-12-04T05:19:14.521Z,6.78
2022-12-04T05:29:17.678Z,7.08
2022-12-04T05:39:22.157Z,6.31
2022-12-04T05:49:25.285Z,6.69
2022-12-04T05:59:29.761Z,7.43
2022-12-04T06:09:32.829Z,7.45
2022-12-04T06:19:37.299Z,7.38
2022-12-04T06:29:40.440Z,7.52
2022-12-04T06:39:44.933Z,7.16
2022-12-04T06:49:50.923Z,7.37
2022-12-04T06:59:55.659Z,7.65
2022-12-04T07:09:58.881Z,7.39
2022-12-04T07:20:03.786Z,7.54
2022-12-04T07:30:14.079Z,7.24
2022-12-04T07:40:20.236Z,7.38
2022-12-04T07:50:23.496Z,7.07
2022-12-04T08:00:28.202Z,6.28
2022-12-04T08:10:31.397Z,6.37
2022-12-04T08:20:36.409Z,6.04
2022-12-04T08:30:39.632Z,6.19
2022-12-04T08:40:44.047Z,6.05
2022-12-04T08:50:47.214Z,7.13
2022-12-04T09:00:51.704Z,7.36
2022-12-04T09:10:55.580Z,6.83
2022-12-04T09:21:00.733Z,7.34
2022-12-04T09:31:06.224Z,7.07
2022-12-04T09:41:19.941Z,7.89
2022-12-04T09:51:25.027Z,8.36
2022-12-04T10:01:34.322Z,8.59
2022-12-04T10:11:45.327Z,7.52
2022-12-04T10:21:58.838Z,7.25
2022-12-04T10:32:07.599Z,7.72
2022-12-04T10:42:22.127Z,7.60
2022-12-04T10:52:25.456Z,7.61
2022-12-04T11:02:31.415Z,7.62
2022-12-04T11:12:35.004Z,8.11
2022-12-04T11:22:50.749Z,8.63
2022-12-04T11:32:54.290Z,8.99
2022-12-04T11:43:06.914Z,8.90
2022-12-04T11:53:17.301Z,9.15
2022-12-04T12:03:27.440Z,8.71
2022-12-04T12:13:36.107Z,8.87
2022-12-04T12:23:52.039Z,8.97
2022-12-04T12:33:58.585Z,8.93
2022-12-04T12:44:06.298Z,8.76
2022-12-04T12:54:17.167Z,9.30
2022-12-04T13:04:26.668Z,9.70
2022-12-04T13:14:29.853Z,9.30
2022-12-04T13:24:46.275Z,9.06
2022-12-04T13:34:58.057Z,9.66
2022-12-04T13:45:08.913Z,9.87
2022-12-04T13:55:26.877Z,9.43
2022-12-04T14:05:35.660Z,10.17
2022-12-04T14:15:39.108Z,10.38
2022-12-04T14:25:43.929Z,10.26
2022-12-04T14:35:49.644Z,10.69
2022-12-04T14:45:59.595Z,10.60
2022-12-04T14:56:13.602Z,10.52
2022-12-04T15:06:22.306Z,10.68
2022-12-04T15:16:25.781Z,10.75
2022-12-04T15:26:30.742Z,10.79
2022-12-04T15:36:41.268Z,10.65
2022-12-04T15:46:46.240Z,10.53
2022-12-04T15:57:00.032Z,10.51
2022-12-04T16:07:04.994Z,10.45
2022-12-04T16:17:11.277Z,10.38
2022-12-04T16:27:20.022Z,10.25
2022-12-04T16:37:24.184Z,10.35
2022-12-04T16:47:29.594Z,10.22
2022-12-04T16:57:32.838Z,10.21
2022-12-04T17:07:37.772Z,9.99
2022-12-04T17:17:41.331Z,10.01
2022-12-04T17:27:46.502Z,9.30
2022-12-04T17:37:50.083Z,9.52
2022-12-04T17:47:54.762Z,9.59
2022-12-04T17:57:58.412Z,9.28
2022-12-04T18:08:03.235Z,9.43
2022-12-04T18:18:06.566Z,8.35
2022-12-04T18:28:11.289Z,8.57
2022-12-04T18:38:18.211Z,8.94
2022-12-04T18:48:23.174Z,8.77
2022-12-04T18:58:26.607Z,8.86
2022-12-04T19:08:34.287Z,8.60
2022-12-04T19:18:40.008Z,9.60
2022-12-04T19:28:44.709Z,8.94
2022-12-04T19:38:48.074Z,8.70
2022-12-04T19:48:54.619Z,8.19
2022-12-04T19:59:00.133Z,7.91
2022-12-04T20:09:07.133Z,8.33
2022-12-04T20:19:14.265Z,8.34
2022-12-04T20:29:20.140Z,8.33
2022-12-04T20:39:23.268Z,8.18
2022-12-04T20:49:28.113Z,8.17
2022-12-04T20:59:32.239Z,8.53
2022-12-04T21:09:36.977Z,8.33
2022-12-04T21:19:40.270Z,7.74
2022-12-04T21:29:44.982Z,8.51
2022-12-04T21:39:48.038Z,8.18
2022-12-04T21:49:52.588Z,8.14
2022-12-04T21:59:55.988Z,8.15
2022-12-04T22:10:04.162Z,7.95
2022-12-04T22:20:10.999Z,7.99
2022-12-04T22:30:15.961Z,7.83
2022-12-04T22:40:19.391Z,7.95
2022-12-04T22:50:24.263Z,8.97
2022-12-04T23:00:28.325Z,8.36
2022-12-04T23:10:32.821Z,8.45
2022-12-04T23:20:35.940Z,8.79
2022-12-04T23:30:46.060Z,8.76
2022-12-04T23:40:49.618Z,8.76
2022-12-04T23:50:54.203Z,8.87
